Airfield :







YOU CAN JOIN US ON...

 
LOGIN :

Register | Disclaimer

   EN    FR    IT 

 









Legend :    VFR   Marginal VFR   IFR   Intensive IFR   Very Intensive IFR
Visi :
Ceiling :
>= 8 km
>= 3000ft
5 to 8 km
1000 to 3000 ft
1500m to 5 km
500 to 1000 ft
800 to 1500m
200 to 500 ft
< 800m
< 200 ft
Symbols :   Thunderstorms  Fog  Heavy snow  Heavy precipitations  Wind > 20 kt






- Airport Elevation : 199 ft
- IATA code : YRQ


CYRQ - Trois-Rivières

CURRENT METAR :
  • 101600Z AUTO 13004KT 120V210 9SM CLR 32/22 A2993 RMK SLP136 DENSITY ALT 2100FT

EXPIRED METARs :
  • 101500Z AUTO VRB03KT 9SM CLR 31/22 A2994 RMK SLP141 DENSITY ALT 2000FT
  • 101400Z AUTO 16005KT 130V200 9SM CLR 29/21 A2995 RMK SLP144 DENSITY ALT 1800FT

TAF TAF CYRQ
Valid from the 10 at 14:00 until the 11 at 02:00 UTC


101338Z 1014/1102 19005KT P6SM SKC
FM101600 18008KT P6SM SCT060
TEMPO 1016/1024 P6SM -SHRA BKN060
PROB30 1016/1024 2SM TSRA BR OVC060CB
FM110000 14008KT P6SM -SHRA BKN060
PROB30 1100/1102 2SM TSRA BKN020 OVC040CB RMK FCST BASED ON AUTO OBS. NXT FCST BY 102000Z
CZUL FIR / North America



MET'MAP, your aeronautical weather chart ! - Copyright ORBIFLY December 2007 - Disclaimer

ORBIFLY MET'MAP TEAM :

Programming & Development : Alexandra Zaïnal
Concept & original design : Baudouin d'Aumeries
Assistance for programming : Marc-Olivier Méhu
Technical & hardware support : Manuel Goepfert

Contact : metmap@orbifly.com




SOURCES & CREDITS :

   NOAA